Time;durP1;ratioP1;P1;durP2;ratioP2;P2;SDS_P1;SDS_P2;PMS_P1;PMS_P2;Temp;Humidity;BMP_temperature;BMP_pressure;BME280_temperature;BME280_humidity;BME280_pressure;Samples;Min_cycle;Max_cycle;Signal;HPM_P1;HPM_P2
2023/04/23 00:02:16;;;;;;;11.83;11.53;;;15.20;99.90;;;;;;5072537;28;20467;-79
2023/04/23 00:04:52;;;;;;;12.97;12.17;;;15.20;99.90;;;;;;5070010;28;20585;-77
2023/04/23 00:07:22;;;;;;;12.77;12.17;;;15.20;99.90;;;;;;5070195;28;20450;-78
2023/04/23 00:09:52;;;;;;;12.60;12.10;;;15.20;99.90;;;;;;5070524;28;20467;-79
2023/04/23 00:12:21;;;;;;;12.00;11.60;;;15.20;99.90;;;;;;5070609;28;21231;-78
2023/04/23 00:14:49;;;;;;;11.87;11.47;;;15.20;99.90;;;;;;5071300;28;20484;-78
2023/04/23 00:17:18;;;;;;;11.50;11.20;;;15.10;99.90;;;;;;5071291;28;20619;-78
2023/04/23 00:19:47;;;;;;;12.03;11.53;;;15.10;99.90;;;;;;5071621;28;20501;-78
2023/04/23 00:22:16;;;;;;;11.70;11.40;;;15.10;99.90;;;;;;5072058;28;20455;-80
2023/04/23 00:24:44;;;;;;;12.80;12.40;;;15.10;99.90;;;;;;5063778;28;20444;-79
2023/04/23 00:27:13;;;;;;;13.40;12.70;;;15.20;99.90;;;;;;5071487;28;20453;-78
2023/04/23 00:29:42;;;;;;;13.10;12.60;;;15.20;99.90;;;;;;5072536;28;20554;-78
2023/04/23 00:32:10;;;;;;;12.33;11.93;;;15.20;99.90;;;;;;5073778;28;20524;-78
2023/04/23 00:34:38;;;;;;;12.50;12.10;;;15.10;99.90;;;;;;5074468;28;20525;-78
2023/04/23 00:37:07;;;;;;;11.83;11.50;;;15.10;99.90;;;;;;5076905;28;20440;-78
2023/04/23 00:39:37;;;;;;;12.13;11.80;;;15.20;99.90;;;;;;5074455;28;20505;-79
2023/04/23 00:42:11;;;;;;;12.17;11.87;;;15.10;99.90;;;;;;5070763;28;20544;-78
2023/04/23 00:44:40;;;;;;;12.03;11.70;;;15.00;99.90;;;;;;5072725;28;20446;-78
2023/04/23 00:47:09;;;;;;;12.30;11.90;;;15.00;99.90;;;;;;5072063;28;20541;-78
2023/04/23 00:49:38;;;;;;;12.67;12.27;;;15.10;99.90;;;;;;5068710;28;20473;-78
2023/04/23 00:52:06;;;;;;;12.60;12.20;;;15.10;99.90;;;;;;5073366;28;20526;-78
2023/04/23 00:54:35;;;;;;;12.20;11.80;;;15.10;99.90;;;;;;5073081;28;20481;-79
2023/04/23 00:57:04;;;;;;;12.10;11.80;;;15.10;99.90;;;;;;5074582;28;20507;-78
2023/04/23 00:59:32;;;;;;;12.43;11.77;;;15.10;99.90;;;;;;5074424;28;20550;-79
2023/04/23 01:02:01;;;;;;;12.13;11.63;;;15.00;99.90;;;;;;5071913;28;20955;-79
2023/04/23 01:04:31;;;;;;;12.23;11.80;;;15.00;99.90;;;;;;5069084;28;20449;-78
2023/04/23 01:07:01;;;;;;;12.40;12.00;;;15.00;99.90;;;;;;5074697;28;20443;-80
2023/04/23 01:09:31;;;;;;;12.30;12.00;;;15.10;99.90;;;;;;5082339;28;20467;-81
2023/04/23 01:12:02;;;;;;;12.03;11.73;;;15.00;99.90;;;;;;5078838;28;20447;-77
2023/04/23 01:14:30;;;;;;;12.13;11.83;;;15.00;99.90;;;;;;5072117;28;20457;-78
2023/04/23 01:16:59;;;;;;;11.97;11.57;;;15.00;99.90;;;;;;5069987;28;20871;-78
2023/04/23 01:19:27;;;;;;;12.47;11.77;;;15.00;99.90;;;;;;5071135;28;20935;-80
2023/04/23 01:21:59;;;;;;;11.97;11.60;;;15.00;99.90;;;;;;5072308;28;22232;-78
2023/04/23 01:24:31;;;;;;;12.00;11.60;;;15.00;99.90;;;;;;5071672;28;20821;-79
2023/04/23 01:27:00;;;;;;;11.83;11.43;;;15.00;99.90;;;;;;5072198;28;21100;-78
2023/04/23 01:29:29;;;;;;;11.97;11.50;;;15.00;99.90;;;;;;5076615;28;20821;-80
2023/04/23 01:31:59;;;;;;;12.10;11.60;;;14.90;1.00;;;;;;5075734;28;20525;-80
2023/04/23 01:34:27;;;;;;;12.00;11.70;;;15.00;1.00;;;;;;5073219;28;20454;-79
2023/04/23 01:36:57;;;;;;;12.20;11.90;;;14.90;1.00;;;;;;5074655;28;21121;-79
2023/04/23 01:39:25;;;;;;;12.47;11.43;;;14.90;1.00;;;;;;5074925;28;20470;-78
2023/04/23 01:41:56;;;;;;;11.97;11.50;;;14.90;1.00;;;;;;5073804;28;20473;-79
2023/04/23 01:44:24;;;;;;;12.10;11.80;;;14.90;1.00;;;;;;5080120;28;20446;-79
2023/04/23 01:46:53;;;;;;;11.67;11.37;;;14.90;1.00;;;;;;5075983;28;20542;-78
2023/04/23 01:49:21;;;;;;;11.83;11.43;;;14.80;1.00;;;;;;5073351;28;20905;-78
2023/04/23 01:51:49;;;;;;;12.70;11.90;;;14.80;1.00;;;;;;5075897;28;20462;-78
2023/04/23 01:54:18;;;;;;;12.30;11.87;;;14.80;1.00;;;;;;5074735;28;20451;-78
2023/04/23 01:56:46;;;;;;;11.93;11.63;;;14.70;1.00;;;;;;5075681;28;20776;-78
2023/04/23 01:59:16;;;;;;;11.80;11.50;;;14.70;1.00;;;;;;5073597;28;21850;-79
2023/04/23 02:01:45;;;;;;;11.40;11.20;;;14.70;1.00;;;;;;5071906;28;20483;-79
2023/04/23 02:04:15;;;;;;;11.03;10.70;;;14.70;1.00;;;;;;5075160;28;20481;-77
2023/04/23 02:06:46;;;;;;;11.07;10.77;;;14.70;1.00;;;;;;5073433;28;20461;-78
2023/04/23 02:09:15;;;;;;;11.20;10.90;;;14.70;1.00;;;;;;5075344;28;20472;-77
2023/04/23 02:11:43;;;;;;;11.23;10.90;;;14.70;1.00;;;;;;5076800;28;20963;-79
2023/04/23 02:14:12;;;;;;;11.00;10.70;;;14.60;1.00;;;;;;5072530;28;20472;-78
2023/04/23 02:16:42;;;;;;;10.80;10.60;;;14.60;1.00;;;;;;5067011;28;20544;-77
2023/04/23 02:19:11;;;;;;;10.77;10.50;;;14.60;1.00;;;;;;5072680;28;20551;-78
2023/04/23 02:21:43;;;;;;;10.90;10.60;;;14.60;85.70;;;;;;5073681;28;20476;-77
2023/04/23 02:24:11;;;;;;;10.70;10.50;;;14.60;99.90;;;;;;5073245;28;20470;-77
2023/04/23 02:26:39;;;;;;;10.40;10.20;;;14.60;99.90;;;;;;5073355;28;20462;-77
2023/04/23 02:29:08;;;;;;;11.40;11.00;;;14.60;99.90;;;;;;5071917;28;20461;-76
2023/04/23 02:31:36;;;;;;;10.90;10.70;;;14.50;99.90;;;;;;5073840;28;20450;-77
2023/04/23 02:34:07;;;;;;;10.70;10.40;;;14.40;99.90;;;;;;5072614;28;20561;-77
2023/04/23 02:36:35;;;;;;;10.30;10.00;;;14.40;99.90;;;;;;5078127;28;20461;-76
2023/04/23 02:39:04;;;;;;;11.00;10.77;;;14.40;1.00;;;;;;5074561;28;20459;-77
2023/04/23 02:41:32;;;;;;;11.13;10.83;;;14.40;99.90;;;;;;5070700;28;20482;-77
2023/04/23 02:44:00;;;;;;;10.90;10.70;;;14.30;99.90;;;;;;5075153;28;21116;-76
2023/04/23 02:46:28;;;;;;;11.20;11.00;;;14.30;1.00;;;;;;5076121;28;20507;-76
2023/04/23 02:48:56;;;;;;;11.00;10.70;;;14.20;1.00;;;;;;5073587;28;20454;-79
2023/04/23 02:51:26;;;;;;;10.70;10.50;;;14.20;1.00;;;;;;5073253;28;20527;-78
2023/04/23 02:53:54;;;;;;;11.07;10.80;;;14.20;99.90;;;;;;5074198;28;20487;-77
2023/04/23 02:56:22;;;;;;;11.00;10.80;;;14.10;91.50;;;;;;5075873;28;20484;-77
2023/04/23 02:58:50;;;;;;;11.13;10.83;;;14.10;99.90;;;;;;5073628;28;20469;-78
2023/04/23 03:01:19;;;;;;;10.97;10.77;;;14.10;99.90;;;;;;5072863;28;20489;-78
2023/04/23 03:03:47;;;;;;;11.00;10.80;;;14.10;99.90;;;;;;5072879;28;20476;-78
2023/04/23 03:06:16;;;;;;;11.10;10.90;;;14.00;99.90;;;;;;5073106;28;20538;-78
2023/04/23 03:08:46;;;;;;;11.70;11.40;;;14.00;99.90;;;;;;5071964;28;20461;-78
2023/04/23 03:11:14;;;;;;;11.57;11.37;;;14.00;99.90;;;;;;5073144;28;20624;-78
2023/04/23 03:13:42;;;;;;;11.67;11.37;;;14.00;99.90;;;;;;5071700;28;20446;-79
2023/04/23 03:16:10;;;;;;;11.20;10.90;;;14.00;1.00;;;;;;5070445;28;20456;-77
2023/04/23 03:18:39;;;;;;;11.20;10.90;;;14.00;99.90;;;;;;5069663;28;20453;-77
2023/04/23 03:21:07;;;;;;;11.47;11.17;;;13.90;1.00;;;;;;5070684;28;20480;-78
2023/04/23 03:23:36;;;;;;;11.47;11.27;;;13.90;1.00;;;;;;5074848;28;20488;-78
2023/04/23 03:26:05;;;;;;;11.33;11.03;;;13.80;80.80;;;;;;5072708;28;20453;-78
2023/04/23 03:28:35;;;;;;;11.03;10.83;;;13.80;99.90;;;;;;5071734;28;20465;-78
2023/04/23 03:31:03;;;;;;;11.90;11.60;;;13.80;79.70;;;;;;5072617;28;21039;-78
2023/04/23 03:33:31;;;;;;;11.93;11.63;;;13.80;99.90;;;;;;5073727;28;20494;-76
2023/04/23 03:36:00;;;;;;;11.50;11.20;;;13.80;99.90;;;;;;5074036;28;20453;-77
2023/04/23 03:38:28;;;;;;;11.73;11.53;;;13.80;1.00;;;;;;5070565;28;20453;-78
2023/04/23 03:40:56;;;;;;;11.43;11.23;;;13.80;1.00;;;;;;5073891;28;20608;-78
2023/04/23 03:43:25;;;;;;;11.80;11.40;;;13.70;99.90;;;;;;5072507;28;20596;-77
2023/04/23 03:45:53;;;;;;;11.47;11.27;;;13.70;99.90;;;;;;5071297;28;20449;-77
2023/04/23 03:48:21;;;;;;;12.97;12.47;;;13.70;99.90;;;;;;5072511;28;20457;-76
2023/04/23 03:50:50;;;;;;;13.27;12.87;;;13.70;99.90;;;;;;5071080;28;20476;-76
2023/04/23 03:53:18;;;;;;;14.57;13.97;;;13.70;1.00;;;;;;5074889;28;21161;-76
2023/04/23 03:55:46;;;;;;;13.43;13.03;;;13.70;1.00;;;;;;5070067;28;20510;-76
2023/04/23 03:58:14;;;;;;;12.67;12.37;;;13.60;1.00;;;;;;5072621;28;21142;-76
2023/04/23 04:00:43;;;;;;;12.60;12.30;;;13.70;58.20;;;;;;5067017;28;20477;-77
2023/04/23 04:03:11;;;;;;;12.67;12.37;;;13.70;1.00;;;;;;5073470;28;21208;-77
2023/04/23 04:05:40;;;;;;;12.80;12.50;;;13.70;1.00;;;;;;5071917;28;20451;-77
2023/04/23 04:08:08;;;;;;;12.63;12.33;;;13.70;1.00;;;;;;5067825;28;20449;-76
2023/04/23 04:10:36;;;;;;;12.80;12.50;;;13.70;1.00;;;;;;5071462;28;21006;-76
2023/04/23 04:13:04;;;;;;;13.03;12.73;;;13.60;1.00;;;;;;5074248;28;20468;-77
2023/04/23 04:15:32;;;;;;;12.90;12.47;;;13.60;99.90;;;;;;5072367;28;20439;-77
2023/04/23 04:18:02;;;;;;;12.90;12.60;;;13.60;99.90;;;;;;5072057;28;20667;-78
2023/04/23 04:20:30;;;;;;;12.90;12.60;;;13.60;99.90;;;;;;5067333;28;20475;-78
2023/04/23 04:22:58;;;;;;;13.00;12.70;;;13.60;99.90;;;;;;5069546;28;20481;-76
2023/04/23 04:25:27;;;;;;;13.20;12.80;;;13.60;99.90;;;;;;5072948;28;20447;-76
2023/04/23 04:27:56;;;;;;;13.00;12.70;;;13.60;1.00;;;;;;5073454;28;20448;-77
2023/04/23 04:30:25;;;;;;;13.93;13.53;;;13.50;1.00;;;;;;5071988;28;20892;-77
2023/04/23 04:32:53;;;;;;;12.90;12.60;;;13.50;95.60;;;;;;5072185;28;20467;-78
2023/04/23 04:35:23;;;;;;;12.93;12.63;;;13.50;1.00;;;;;;5074916;28;20444;-77
2023/04/23 04:37:52;;;;;;;13.00;12.70;;;13.50;44.60;;;;;;5073477;28;20730;-77
2023/04/23 04:40:21;;;;;;;13.20;12.90;;;13.50;99.90;;;;;;5076796;28;20475;-77
2023/04/23 04:42:50;;;;;;;12.93;12.63;;;13.50;1.00;;;;;;5071505;28;20484;-79
2023/04/23 04:45:18;;;;;;;12.50;12.20;;;13.50;99.90;;;;;;5073066;28;21134;-79
2023/04/23 04:47:46;;;;;;;12.80;12.50;;;13.50;1.00;;;;;;5071790;28;20577;-78
2023/04/23 04:50:14;;;;;;;12.77;12.47;;;13.50;1.00;;;;;;5071045;28;21001;-78
2023/04/23 04:52:44;;;;;;;12.50;12.30;;;13.50;1.00;;;;;;5071132;28;20535;-78
2023/04/23 04:55:12;;;;;;;13.00;12.70;;;13.50;99.90;;;;;;5075618;28;20463;-79
2023/04/23 04:57:40;;;;;;;12.87;12.57;;;13.50;1.00;;;;;;5072682;28;20453;-78
2023/04/23 05:00:23;;;;;;;14.27;13.20;;;13.50;1.00;;;;;;5071107;28;20481;-78
2023/04/23 05:02:51;;;;;;;12.73;12.43;;;13.50;99.90;;;;;;5075356;28;21061;-79
2023/04/23 05:05:21;;;;;;;13.07;12.77;;;13.40;1.00;;;;;;5076353;28;20441;-78
2023/04/23 05:07:53;;;;;;;13.80;13.50;;;13.50;99.90;;;;;;5077191;28;20481;-77
2023/04/23 05:10:21;;;;;;;13.47;13.07;;;13.50;97.10;;;;;;5076581;28;21374;-77
2023/04/23 05:12:50;;;;;;;13.43;13.13;;;13.50;51.30;;;;;;5076205;28;20897;-77
2023/04/23 05:15:19;;;;;;;13.40;13.00;;;13.50;99.90;;;;;;5075742;28;21165;-77
2023/04/23 05:17:49;;;;;;;13.90;13.40;;;13.40;99.90;;;;;;5076148;28;20456;-77
2023/04/23 05:20:17;;;;;;;13.70;13.30;;;13.40;99.90;;;;;;5075571;28;20489;-78
2023/04/23 05:22:45;;;;;;;13.30;13.00;;;13.50;99.90;;;;;;5075938;28;20469;-77
2023/04/23 05:25:14;;;;;;;13.50;13.20;;;13.50;99.90;;;;;;5077234;28;20455;-77
2023/04/23 05:27:43;;;;;;;13.33;12.90;;;13.50;99.90;;;;;;5078906;28;20468;-77
2023/04/23 05:30:11;;;;;;;13.60;13.20;;;13.50;99.90;;;;;;5073024;28;20469;-77
2023/04/23 05:32:39;;;;;;;13.00;12.80;;;13.50;99.90;;;;;;5077495;28;20453;-77
2023/04/23 05:35:08;;;;;;;13.80;13.40;;;13.60;99.90;;;;;;5076971;28;20461;-77
2023/04/23 05:37:36;;;;;;;14.40;14.10;;;13.60;99.90;;;;;;5075691;28;20465;-78
2023/04/23 05:40:08;;;;;;;13.97;13.67;;;13.70;1.00;;;;;;5075309;28;20477;-77
2023/04/23 05:42:37;;;;;;;14.10;13.70;;;13.70;99.90;;;;;;5076795;28;20460;-77
2023/04/23 05:45:07;;;;;;;13.80;13.50;;;13.70;45.70;;;;;;5075126;28;20468;-78
2023/04/23 05:47:36;;;;;;;14.00;13.70;;;13.80;1.00;;;;;;5073837;28;20570;-78
2023/04/23 05:50:06;;;;;;;14.20;13.90;;;13.80;1.00;;;;;;5077164;28;20473;-81
2023/04/23 05:52:36;;;;;;;14.10;13.70;;;13.80;99.90;;;;;;5081916;28;20936;-81
2023/04/23 05:55:05;;;;;;;13.97;13.67;;;13.80;99.90;;;;;;5076230;28;20495;-81
2023/04/23 05:57:33;;;;;;;13.93;13.60;;;13.90;99.90;;;;;;5078131;28;20464;-82
2023/04/23 06:00:05;;;;;;;14.10;13.70;;;13.90;99.90;;;;;;5077691;28;20470;-80
2023/04/23 06:02:36;;;;;;;14.43;14.10;;;14.10;99.90;;;;;;5075822;28;21228;-79
2023/04/23 06:05:05;;;;;;;14.70;14.30;;;14.40;99.90;;;;;;5079903;28;20495;-81
2023/04/23 06:07:34;;;;;;;14.40;14.07;;;14.60;99.90;;;;;;5077197;28;20447;-78
2023/04/23 06:10:03;;;;;;;14.33;14.00;;;14.80;1.00;;;;;;5074032;28;20469;-78
2023/04/23 06:12:32;;;;;;;14.60;14.20;;;14.70;99.90;;;;;;5071623;28;20457;-77
2023/04/23 06:15:00;;;;;;;14.60;14.20;;;14.60;1.00;;;;;;5072841;28;20997;-79
2023/04/23 06:17:29;;;;;;;14.20;13.90;;;14.70;99.90;;;;;;5075851;28;20453;-76
2023/04/23 06:19:57;;;;;;;14.53;14.20;;;14.80;99.90;;;;;;5070529;28;20487;-77
2023/04/23 06:22:25;;;;;;;14.60;14.30;;;14.80;99.90;;;;;;5074498;28;20458;-77
2023/04/23 06:24:54;;;;;;;14.83;14.43;;;14.80;99.90;;;;;;5073498;28;20505;-77
2023/04/23 06:27:22;;;;;;;14.70;14.33;;;14.70;99.90;;;;;;5075712;28;20468;-78
2023/04/23 06:29:50;;;;;;;14.40;14.10;;;14.90;99.90;;;;;;5074918;28;20478;-78
2023/04/23 06:32:19;;;;;;;14.33;13.97;;;15.00;99.90;;;;;;5072026;28;20472;-76
2023/04/23 06:34:49;;;;;;;14.33;14.03;;;15.00;99.90;;;;;;5071616;28;20458;-79
2023/04/23 06:37:30;;;;;;;14.20;13.90;;;15.20;99.90;;;;;;5076222;28;20452;-78
2023/04/23 06:39:59;;;;;;;14.50;14.20;;;15.30;59.40;;;;;;5073044;28;20524;-78
2023/04/23 06:42:27;;;;;;;14.40;14.10;;;15.30;1.00;;;;;;5065791;28;20867;-78
2023/04/23 06:44:58;;;;;;;14.90;14.60;;;15.50;1.00;;;;;;5074165;28;20485;-77
2023/04/23 06:47:26;;;;;;;14.90;14.60;;;15.70;1.00;;;;;;5072382;28;21205;-80
2023/04/23 06:49:56;;;;;;;14.97;14.57;;;15.90;1.00;;;;;;5070233;28;20828;-78
2023/04/23 06:52:24;;;;;;;14.97;14.60;;;16.10;1.00;;;;;;5069932;28;21023;-78
2023/04/23 06:54:52;;;;;;;14.60;14.30;;;16.40;1.00;;;;;;5073877;28;20903;-80
2023/04/23 06:57:20;;;;;;;14.70;14.40;;;16.60;1.00;;;;;;5073734;28;20463;-80
2023/04/23 06:59:49;;;;;;;14.80;14.50;;;16.80;1.00;;;;;;5068610;28;20621;-79
2023/04/23 07:02:17;;;;;;;14.87;14.40;;;16.80;1.00;;;;;;5075249;28;20459;-80
2023/04/23 07:04:46;;;;;;;14.63;14.30;;;16.70;99.90;;;;;;5079268;28;20459;-79
2023/04/23 07:07:16;;;;;;;14.60;14.30;;;16.70;99.90;;;;;;5072572;28;20458;-81
2023/04/23 07:09:44;;;;;;;15.03;14.63;;;16.80;99.90;;;;;;5072146;28;20481;-78
2023/04/23 07:12:12;;;;;;;15.10;14.80;;;16.70;99.90;;;;;;5071831;28;20513;-79
2023/04/23 07:14:41;;;;;;;14.70;14.40;;;16.70;99.90;;;;;;5073681;28;20462;-80
2023/04/23 07:17:10;;;;;;;14.83;14.53;;;16.70;99.90;;;;;;5073516;28;20979;-79
2023/04/23 07:19:38;;;;;;;15.10;14.70;;;16.80;99.90;;;;;;5069492;28;20463;-79
2023/04/23 07:22:06;;;;;;;15.30;14.80;;;16.90;99.90;;;;;;5073657;28;20466;-79
2023/04/23 07:24:35;;;;;;;14.73;14.43;;;16.90;99.90;;;;;;5074019;28;20557;-79
2023/04/23 07:27:04;;;;;;;14.60;14.30;;;16.70;99.90;;;;;;5075270;28;20451;-79
2023/04/23 07:29:33;;;;;;;14.40;14.00;;;16.60;99.90;;;;;;5073823;28;20464;-79
2023/04/23 07:32:01;;;;;;;14.40;14.10;;;16.70;99.90;;;;;;5072174;28;20441;-79
2023/04/23 07:34:29;;;;;;;14.60;14.30;;;16.80;99.90;;;;;;5075830;28;20453;-80
2023/04/23 07:36:57;;;;;;;15.00;14.60;;;16.70;99.90;;;;;;5078122;28;20455;-78
2023/04/23 07:39:25;;;;;;;14.40;14.10;;;16.80;99.90;;;;;;5073535;28;20468;-79
2023/04/23 07:41:57;;;;;;;14.27;13.97;;;16.80;99.90;;;;;;5074614;28;20469;-81
2023/04/23 07:44:25;;;;;;;14.70;14.30;;;16.80;99.90;;;;;;5073640;28;20464;-79
2023/04/23 07:46:53;;;;;;;14.13;13.83;;;16.70;99.90;;;;;;5074353;28;21181;-79
2023/04/23 07:49:21;;;;;;;14.50;14.20;;;16.60;99.90;;;;;;5074231;28;20451;-78
2023/04/23 07:51:49;;;;;;;14.40;14.10;;;16.70;99.90;;;;;;5074404;28;20558;-79
2023/04/23 07:54:18;;;;;;;14.33;14.03;;;16.70;99.90;;;;;;5076743;28;20468;-79
2023/04/23 07:56:47;;;;;;;14.20;13.90;;;16.70;99.90;;;;;;5075883;28;20460;-80
2023/04/23 07:59:16;;;;;;;13.83;13.50;;;16.60;99.90;;;;;;5075434;28;20455;-79
2023/04/23 08:01:44;;;;;;;14.00;13.70;;;16.70;99.90;;;;;;5076109;28;20934;-79
2023/04/23 08:04:12;;;;;;;14.17;13.83;;;16.70;99.90;;;;;;5071992;28;20484;-80
2023/04/23 08:06:41;;;;;;;14.20;13.90;;;16.60;99.90;;;;;;5072613;28;20778;-79
2023/04/23 08:09:09;;;;;;;13.83;13.53;;;16.60;99.90;;;;;;5070431;28;20806;-79
2023/04/23 08:11:37;;;;;;;13.90;13.60;;;16.50;99.90;;;;;;5073479;28;20448;-80
2023/04/23 08:14:05;;;;;;;14.80;14.50;;;16.60;99.90;;;;;;5075199;28;20456;-79
2023/04/23 08:16:35;;;;;;;14.07;13.77;;;16.60;99.90;;;;;;5069554;28;20828;-79
2023/04/23 08:19:06;;;;;;;14.50;14.00;;;16.60;99.90;;;;;;5075171;28;20452;-79
2023/04/23 08:21:34;;;;;;;14.17;13.87;;;16.70;99.90;;;;;;5071702;28;20487;-80
2023/04/23 08:24:03;;;;;;;13.90;13.60;;;16.70;99.90;;;;;;5077627;28;20465;-79
2023/04/23 08:26:31;;;;;;;14.10;13.80;;;16.60;99.90;;;;;;5089702;28;20461;-79
2023/04/23 08:29:00;;;;;;;13.80;13.50;;;16.60;99.90;;;;;;5073820;28;20507;-79
2023/04/23 08:31:28;;;;;;;14.00;13.70;;;16.50;99.90;;;;;;5072703;28;20484;-79
2023/04/23 08:33:58;;;;;;;14.60;13.93;;;16.50;99.90;;;;;;5074791;28;20531;-79
2023/04/23 08:36:26;;;;;;;14.30;14.00;;;16.60;99.90;;;;;;5074766;28;20447;-81
2023/04/23 08:38:54;;;;;;;14.23;13.87;;;16.50;99.90;;;;;;5080153;28;20443;-79
2023/04/23 08:41:25;;;;;;;14.47;14.07;;;16.60;99.90;;;;;;5077750;28;20473;-79
2023/04/23 08:44:05;;;;;;;14.50;14.00;;;16.70;99.90;;;;;;5077067;28;20455;-79
2023/04/23 08:46:36;;;;;;;14.27;13.87;;;16.90;99.90;;;;;;5078017;28;20449;-81
2023/04/23 08:49:08;;;;;;;14.53;14.23;;;17.00;99.90;;;;;;5079375;28;20460;-80
2023/04/23 08:51:42;;;;;;;14.27;13.87;;;17.20;99.90;;;;;;5079445;28;20495;-80
2023/04/23 08:54:15;;;;;;;14.00;13.70;;;17.30;99.90;;;;;;5079116;28;20456;-81
2023/04/23 08:56:45;;;;;;;14.60;14.20;;;17.20;99.90;;;;;;5079050;28;20511;-80
2023/04/23 08:59:13;;;;;;;13.73;13.43;;;17.00;99.90;;;;;;5077754;28;20956;-81
2023/04/23 09:01:42;;;;;;;13.70;13.40;;;17.00;99.90;;;;;;5078234;28;20538;-80
2023/04/23 09:04:15;;;;;;;13.60;13.20;;;16.90;99.90;;;;;;5077366;28;20453;-79
2023/04/23 09:06:44;;;;;;;13.50;13.10;;;16.90;99.90;;;;;;5078555;28;21390;-79
2023/04/23 09:09:15;;;;;;;13.20;12.90;;;16.90;99.90;;;;;;5071261;28;20572;-81
2023/04/23 09:11:44;;;;;;;13.20;12.90;;;16.80;99.90;;;;;;5077779;28;20447;-79
2023/04/23 09:14:13;;;;;;;13.20;12.80;;;16.90;99.90;;;;;;5079475;28;20505;-79
2023/04/23 09:16:41;;;;;;;13.00;12.60;;;17.10;99.90;;;;;;5082556;28;20441;-79
2023/04/23 09:19:11;;;;;;;13.60;13.30;;;17.20;99.90;;;;;;5078764;28;20476;-80
2023/04/23 09:21:40;;;;;;;13.20;12.80;;;17.20;99.90;;;;;;5078214;28;20445;-80
2023/04/23 09:24:11;;;;;;;13.40;13.10;;;17.30;99.90;;;;;;5077816;28;20450;-80
2023/04/23 09:26:45;;;;;;;14.07;13.13;;;17.40;99.90;;;;;;5078863;28;20548;-81
2023/04/23 09:29:17;;;;;;;13.13;12.80;;;17.50;99.90;;;;;;5076379;28;20457;-79
2023/04/23 09:31:48;;;;;;;12.83;12.53;;;17.60;99.90;;;;;;5077782;28;20538;-79
2023/04/23 09:34:18;;;;;;;12.67;12.37;;;17.70;99.90;;;;;;5077617;28;20460;-81
2023/04/23 09:36:49;;;;;;;12.70;12.40;;;17.60;99.90;;;;;;5080783;28;20460;-79
2023/04/23 09:39:18;;;;;;;12.53;11.97;;;17.60;99.90;;;;;;5076236;28;20460;-80
2023/04/23 09:41:46;;;;;;;12.27;12.03;;;17.70;99.90;;;;;;5075406;28;20457;-80
2023/04/23 09:44:19;;;;;;;11.90;11.60;;;17.70;99.90;;;;;;5077315;28;20507;-79
2023/04/23 09:46:47;;;;;;;11.93;11.63;;;17.50;99.90;;;;;;5080239;28;21275;-80
2023/04/23 09:49:17;;;;;;;11.93;11.63;;;17.50;99.90;;;;;;5078556;28;20461;-79
2023/04/23 09:51:46;;;;;;;13.40;13.00;;;17.70;99.90;;;;;;5080199;28;20454;-79
2023/04/23 09:54:17;;;;;;;11.63;11.43;;;17.80;99.90;;;;;;5077021;28;20469;-80
2023/04/23 09:56:49;;;;;;;11.60;11.30;;;17.80;99.90;;;;;;5078645;28;20488;-79
2023/04/23 09:59:22;;;;;;;11.20;10.80;;;17.70;99.90;;;;;;5076484;28;20450;-79
2023/04/23 10:02:08;;;;;;;11.30;11.10;;;17.80;99.90;;;;;;5074256;28;20544;-79
2023/04/23 10:04:38;;;;;;;11.17;10.83;;;17.80;99.90;;;;;;5073795;28;20491;-79
2023/04/23 10:07:12;;;;;;;10.90;10.70;;;17.70;99.90;;;;;;5080489;28;20459;-79
2023/04/23 10:09:43;;;;;;;11.70;11.40;;;17.80;99.90;;;;;;5077900;28;21387;-79
2023/04/23 10:12:12;;;;;;;10.43;10.20;;;17.70;99.90;;;;;;5076740;28;20465;-81
2023/04/23 10:15:01;;;;;;;10.80;10.50;;;17.70;99.90;;;;;;5075716;28;21061;-81
2023/04/23 10:17:29;;;;;;;10.80;10.53;;;17.90;99.90;;;;;;5077324;28;20541;-80
2023/04/23 10:20:01;;;;;;;10.40;10.20;;;17.90;99.90;;;;;;5075642;28;20477;-80
2023/04/23 10:22:30;;;;;;;10.50;10.20;;;18.00;99.90;;;;;;5077740;28;20458;-80
2023/04/23 10:25:01;;;;;;;10.47;10.27;;;18.10;99.90;;;;;;5075850;28;20959;-81
2023/04/23 10:27:31;;;;;;;10.80;10.60;;;18.30;99.90;;;;;;5076415;28;21356;-79
2023/04/23 10:30:13;;;;;;;10.90;10.50;;;18.30;99.90;;;;;;5073993;28;20477;-79
2023/04/23 10:32:42;;;;;;;11.07;10.77;;;18.30;99.90;;;;;;5078575;28;21326;-79
2023/04/23 10:35:11;;;;;;;10.97;10.77;;;18.30;99.90;;;;;;5076841;28;20453;-81
2023/04/23 10:37:40;;;;;;;10.73;10.50;;;18.40;99.90;;;;;;5076219;28;20456;-79
2023/04/23 10:40:12;;;;;;;11.03;10.83;;;18.50;99.90;;;;;;5077647;28;20480;-80
2023/04/23 10:42:43;;;;;;;11.10;10.80;;;18.60;99.90;;;;;;5091813;28;20462;-81
2023/04/23 10:45:15;;;;;;;10.40;10.20;;;18.50;99.90;;;;;;5079908;28;20522;-81
2023/04/23 10:47:53;;;;;;;10.50;10.20;;;18.40;99.90;;;;;;5077715;28;20810;-81
2023/04/23 10:50:25;;;;;;;10.50;10.30;;;18.30;99.90;;;;;;5077024;28;20501;-80
2023/04/23 10:52:55;;;;;;;11.23;10.90;;;18.20;99.90;;;;;;5074282;28;20453;-80
2023/04/23 10:55:26;;;;;;;10.20;10.00;;;18.30;99.90;;;;;;5089852;28;20482;-80
2023/04/23 10:57:59;;;;;;;10.43;10.23;;;18.30;99.90;;;;;;5079016;28;20469;-80
2023/04/23 11:00:39;;;;;;;10.83;10.63;;;18.30;99.90;;;;;;5075542;28;20472;-80
2023/04/23 11:03:28;;;;;;;10.20;10.00;;;18.40;99.90;;;;;;5074230;28;20469;-79
2023/04/23 11:06:01;;;;;;;9.70;9.50;;;18.40;99.90;;;;;;5076591;28;20473;-80
2023/04/23 11:08:31;;;;;;;10.53;10.27;;;18.50;99.90;;;;;;5075659;28;20450;-79
2023/04/23 11:11:00;;;;;;;9.87;9.67;;;18.60;99.90;;;;;;5076221;28;20466;-79
2023/04/23 11:13:30;;;;;;;9.90;9.70;;;18.70;99.90;;;;;;5072395;28;20448;-79
2023/04/23 11:16:15;;;;;;;10.17;9.97;;;18.70;99.90;;;;;;5080145;28;20453;-80
2023/04/23 11:19:01;;;;;;;9.73;9.53;;;18.70;99.90;;;;;;5075470;28;20464;-79
2023/04/23 11:22:02;;;;;;;9.83;9.63;;;18.70;99.90;;;;;;5076397;28;20477;-79
2023/04/23 11:24:32;;;;;;;9.67;9.50;;;18.70;99.90;;;;;;5077006;28;20464;-81
2023/04/23 11:27:01;;;;;;;9.70;9.50;;;18.60;99.90;;;;;;5078137;28;20543;-80
2023/04/23 11:29:29;;;;;;;10.10;9.90;;;18.50;99.90;;;;;;5080932;28;20465;-80
2023/04/23 11:31:58;;;;;;;10.03;9.63;;;18.70;99.90;;;;;;5075701;28;20506;-76
2023/04/23 11:34:32;;;;;;;9.80;9.60;;;18.70;99.90;;;;;;5075106;28;20550;-79
2023/04/23 11:37:03;;;;;;;10.50;10.30;;;18.70;99.90;;;;;;5076679;28;20449;-79
2023/04/23 11:39:32;;;;;;;10.50;10.10;;;18.90;99.90;;;;;;5072026;28;21002;-79
2023/04/23 11:42:01;;;;;;;10.20;10.00;;;19.00;99.90;;;;;;5076847;28;20850;-79
2023/04/23 11:44:30;;;;;;;9.90;9.70;;;18.80;99.90;;;;;;5075377;28;20489;-79
2023/04/23 11:47:01;;;;;;;9.63;9.40;;;18.70;99.90;;;;;;5077814;28;20478;-79
2023/04/23 11:49:30;;;;;;;9.43;9.23;;;18.80;99.90;;;;;;5071750;28;20479;-80
2023/04/23 11:52:00;;;;;;;9.87;9.67;;;18.80;99.90;;;;;;5094378;28;20823;-79
2023/04/23 11:54:30;;;;;;;9.97;9.77;;;18.80;99.90;;;;;;5075321;28;21189;-79
2023/04/23 11:56:58;;;;;;;9.90;9.60;;;18.90;99.90;;;;;;5075117;28;20443;-79
2023/04/23 11:59:27;;;;;;;9.80;9.60;;;18.90;99.90;;;;;;5070858;28;20450;-79
2023/04/23 12:01:57;;;;;;;9.80;9.50;;;18.90;99.90;;;;;;5077754;28;20452;-80
2023/04/23 12:04:26;;;;;;;9.40;9.20;;;18.80;99.90;;;;;;5075465;28;20446;-79
2023/04/23 12:06:56;;;;;;;9.20;8.80;;;18.90;99.90;;;;;;5077647;28;20505;-78
2023/04/23 12:09:25;;;;;;;9.63;9.43;;;18.90;99.90;;;;;;5074764;28;20450;-77
2023/04/23 12:11:56;;;;;;;9.60;9.40;;;18.80;99.90;;;;;;5073042;28;20465;-78
2023/04/23 12:14:29;;;;;;;9.10;8.90;;;18.70;99.90;;;;;;5075681;28;20597;-78
2023/04/23 12:17:08;;;;;;;9.47;9.27;;;18.70;99.90;;;;;;5075477;28;20477;-78
2023/04/23 12:19:37;;;;;;;9.60;9.40;;;18.70;99.90;;;;;;5073057;28;21041;-78
2023/04/23 12:22:07;;;;;;;9.13;8.93;;;18.70;99.90;;;;;;5076553;28;20458;-77
2023/04/23 12:24:47;;;;;;;9.20;9.00;;;18.60;99.90;;;;;;5074775;28;20516;-78
2023/04/23 12:27:20;;;;;;;9.30;9.10;;;18.60;99.90;;;;;;5074823;28;20485;-77
2023/04/23 12:29:49;;;;;;;9.70;9.30;;;18.80;99.90;;;;;;5074114;28;21035;-78
2023/04/23 12:32:21;;;;;;;9.40;9.20;;;18.80;99.90;;;;;;5069043;28;20447;-79
2023/04/23 12:34:54;;;;;;;9.63;9.40;;;18.80;99.90;;;;;;5072372;28;20449;-79
2023/04/23 12:37:25;;;;;;;9.50;9.20;;;18.90;99.90;;;;;;5073814;28;20453;-78
2023/04/23 12:39:55;;;;;;;9.23;9.03;;;18.80;99.90;;;;;;5072665;28;20494;-78
2023/04/23 12:42:25;;;;;;;8.67;8.50;;;18.80;99.90;;;;;;5077906;28;20457;-79
2023/04/23 12:44:54;;;;;;;8.90;8.70;;;18.80;99.90;;;;;;5067345;28;20442;-78